TRA9J EHAM-LIEO
Flight info
| Callsign | TRA9J |
|---|---|
| Flight time | 2h 12m |
| Altitude | 35000 |
| Route | WOODY DCT NIK DCT RITAX DCT SUTAL DCT GTQ DCT DEVDI DCT ODINA DCT ANAKI DCT TORTU DCT RAPUR DCT OKBON DCT BEBEV DCT AJO DCT CORSI |
| Aircraft | B738/M-SDE2E3FGHIRWXY/LB1 |
Departure
| Time | 2026-04-28 17:27 |
|---|---|
| Airport | Amsterdam Airport Schiphol (EHAM) |
Arrival
| Time | 2026-04-28 19:40 |
|---|---|
| Airport | Olbia Costa Smeralda Airport (LIEO) |
| Time | Latitude | Longitude | Altitude | Speed | Heading |
|---|---|---|---|---|---|
| 2026-04-28 16:28 | 52.30506 | 4.76806 | -2 ft | 0 kts | 314° |
| 2026-04-28 17:13 | 52.30505 | 4.76807 | -2 ft | 2 kts | 314° |
| 2026-04-28 17:13 | 52.30491 | 4.76831 | -2 ft | 2 kts | 314° |
| 2026-04-28 17:13 | 52.30474 | 4.76861 | -2 ft | 4 kts | 313° |
| 2026-04-28 17:14 | 52.30457 | 4.76891 | -2 ft | 4 kts | 310° |
| 2026-04-28 17:14 | 52.30448 | 4.76922 | -2 ft | 4 kts | 243° |
| 2026-04-28 17:14 | 52.30463 | 4.76955 | -2 ft | 4 kts | 220° |
| 2026-04-28 17:14 | 52.30484 | 4.76972 | -2 ft | 4 kts | 190° |
| 2026-04-28 17:15 | 52.30508 | 4.76969 | -2 ft | 4 kts | 151° |
| 2026-04-28 17:15 | 52.30529 | 4.76946 | -2 ft | 2 kts | 148° |
| 2026-04-28 17:15 | 52.30530 | 4.76945 | -2 ft | 1 kts | 148° |
| 2026-04-28 17:18 | 52.30517 | 4.76959 | -2 ft | 6 kts | 148° |
| 2026-04-28 17:18 | 52.30459 | 4.77018 | -2 ft | 13 kts | 147° |
| 2026-04-28 17:19 | 52.30439 | 4.77154 | -2 ft | 16 kts | 58° |
| 2026-04-28 17:19 | 52.30502 | 4.77318 | -2 ft | 18 kts | 58° |
| 2026-04-28 17:19 | 52.30573 | 4.77503 | -2 ft | 19 kts | 57° |
| 2026-04-28 17:19 | 52.30685 | 4.77590 | -2 ft | 17 kts | 3° |
| 2026-04-28 17:20 | 52.30800 | 4.77601 | -2 ft | 16 kts | 3° |
| 2026-04-28 17:20 | 52.30873 | 4.77609 | -2 ft | 16 kts | 4° |
| 2026-04-28 17:20 | 52.31020 | 4.77621 | -2 ft | 16 kts | 2° |
| 2026-04-28 17:20 | 52.31135 | 4.77632 | -2 ft | 17 kts | 3° |
| 2026-04-28 17:21 | 52.31254 | 4.77643 | -2 ft | 17 kts | 3° |
| 2026-04-28 17:21 | 52.31371 | 4.77654 | -2 ft | 17 kts | 3° |
| 2026-04-28 17:21 | 52.31482 | 4.77605 | -2 ft | 18 kts | 317° |
| 2026-04-28 17:22 | 52.31571 | 4.77155 | -2 ft | 27 kts | 267° |
| 2026-04-28 17:22 | 52.31561 | 4.76890 | -2 ft | 20 kts | 266° |
| 2026-04-28 17:22 | 52.31553 | 4.76664 | -2 ft | 20 kts | 266° |
| 2026-04-28 17:23 | 52.31538 | 4.76232 | -2 ft | 19 kts | 266° |
| 2026-04-28 17:23 | 52.31531 | 4.76018 | -2 ft | 19 kts | 266° |
| 2026-04-28 17:23 | 52.31524 | 4.75810 | -2 ft | 18 kts | 266° |
| 2026-04-28 17:23 | 52.31517 | 4.75609 | -2 ft | 17 kts | 267° |
| 2026-04-28 17:24 | 52.31510 | 4.75414 | -2 ft | 17 kts | 267° |
| 2026-04-28 17:24 | 52.31504 | 4.75210 | -2 ft | 19 kts | 267° |
| 2026-04-28 17:24 | 52.31496 | 4.74990 | -2 ft | 20 kts | 266° |
| 2026-04-28 17:24 | 52.31489 | 4.74787 | -2 ft | 11 kts | 266° |
| 2026-04-28 17:25 | 52.31508 | 4.74677 | -2 ft | 11 kts | 324° |
| 2026-04-28 17:25 | 52.31645 | 4.74688 | -1 ft | 10 kts | 36° |
| 2026-04-28 17:25 | 52.31668 | 4.74776 | -2 ft | 0 kts | 87° |
| 2026-04-28 17:26 | 52.31669 | 4.74791 | -2 ft | 12 kts | 87° |
| 2026-04-28 17:26 | 52.31686 | 4.75306 | -4 ft | 77 kts | 86° |
| 2026-04-28 17:26 | 52.31728 | 4.76495 | -3 ft | 130 kts | 86° |
| 2026-04-28 17:27 | 52.31773 | 4.78168 | 166 ft | 157 kts | 85° |
| 2026-04-28 17:27 | 52.31797 | 4.80021 | 578 ft | 171 kts | 85° |
| 2026-04-28 17:27 | 52.31631 | 4.82015 | 1030 ft | 188 kts | 117° |
| 2026-04-28 17:27 | 52.30518 | 4.83198 | 1635 ft | 204 kts | 166° |
| 2026-04-28 17:28 | 52.29077 | 4.83626 | 1982 ft | 223 kts | 164° |
| 2026-04-28 17:28 | 52.25973 | 4.84767 | 3066 ft | 233 kts | 164° |
| 2026-04-28 17:28 | 52.24309 | 4.84956 | 3543 ft | 253 kts | 175° |
| 2026-04-28 17:29 | 52.22484 | 4.84887 | 3980 ft | 267 kts | 176° |
| 2026-04-28 17:29 | 52.20604 | 4.84798 | 4662 ft | 271 kts | 176° |
| 2026-04-28 17:29 | 52.18716 | 4.84716 | 5394 ft | 273 kts | 176° |
| 2026-04-28 17:30 | 52.14893 | 4.84584 | 6820 ft | 277 kts | 176° |
| 2026-04-28 17:30 | 52.11017 | 4.84490 | 8123 ft | 283 kts | 177° |
| 2026-04-28 17:30 | 52.09037 | 4.84449 | 8813 ft | 286 kts | 177° |
| 2026-04-28 17:31 | 52.07040 | 4.84408 | 9485 ft | 288 kts | 178° |
| 2026-04-28 17:31 | 52.02986 | 4.84316 | 10606 ft | 302 kts | 180° |
| 2026-04-28 17:32 | 51.98784 | 4.81833 | 10961 ft | 344 kts | 205° |
| 2026-04-28 17:32 | 51.96627 | 4.80068 | 11447 ft | 350 kts | 205° |
| 2026-04-28 17:32 | 51.94434 | 4.78321 | 12099 ft | 351 kts | 205° |
| 2026-04-28 17:32 | 51.92230 | 4.76588 | 12793 ft | 353 kts | 204° |
| 2026-04-28 17:33 | 51.90015 | 4.74854 | 13410 ft | 356 kts | 204° |
| 2026-04-28 17:33 | 51.87776 | 4.73107 | 13964 ft | 360 kts | 204° |
| 2026-04-28 17:33 | 51.85505 | 4.71335 | 14567 ft | 364 kts | 205° |
| 2026-04-28 17:33 | 51.83991 | 4.70152 | 14997 ft | 365 kts | 205° |
| 2026-04-28 17:34 | 51.80913 | 4.67752 | 15845 ft | 370 kts | 204° |
| 2026-04-28 17:34 | 51.78587 | 4.65943 | 16433 ft | 373 kts | 205° |
| 2026-04-28 17:34 | 51.76233 | 4.64115 | 17016 ft | 377 kts | 203° |
| 2026-04-28 17:34 | 51.73716 | 4.62968 | 17525 ft | 379 kts | 181° |
| 2026-04-28 17:35 | 51.71133 | 4.63623 | 18079 ft | 378 kts | 156° |
| 2026-04-28 17:35 | 51.68811 | 4.65603 | 18672 ft | 378 kts | 150° |
| 2026-04-28 17:35 | 51.66478 | 4.67611 | 19165 ft | 383 kts | 151° |
| 2026-04-28 17:35 | 51.64091 | 4.69590 | 19644 ft | 387 kts | 152° |
| 2026-04-28 17:36 | 51.61681 | 4.71557 | 20157 ft | 390 kts | 152° |
| 2026-04-28 17:36 | 51.59248 | 4.73526 | 20669 ft | 393 kts | 153° |
| 2026-04-28 17:36 | 51.56796 | 4.75503 | 21157 ft | 396 kts | 153° |
| 2026-04-28 17:36 | 51.54328 | 4.77490 | 21632 ft | 399 kts | 153° |
| 2026-04-28 17:37 | 51.51832 | 4.79497 | 22097 ft | 402 kts | 153° |
| 2026-04-28 17:37 | 51.49327 | 4.81511 | 22551 ft | 405 kts | 153° |
| 2026-04-28 17:37 | 51.46799 | 4.83541 | 23002 ft | 407 kts | 153° |
| 2026-04-28 17:37 | 51.44258 | 4.85581 | 23429 ft | 410 kts | 153° |
| 2026-04-28 17:38 | 51.41693 | 4.87638 | 23822 ft | 413 kts | 153° |
| 2026-04-28 17:38 | 51.39111 | 4.89705 | 24216 ft | 416 kts | 153° |
| 2026-04-28 17:38 | 51.36517 | 4.91779 | 24625 ft | 418 kts | 153° |
| 2026-04-28 17:38 | 51.33907 | 4.93863 | 25021 ft | 420 kts | 153° |
| 2026-04-28 17:39 | 51.31285 | 4.95955 | 25383 ft | 423 kts | 153° |
| 2026-04-28 17:39 | 51.28640 | 4.98063 | 25741 ft | 426 kts | 154° |
| 2026-04-28 17:39 | 51.23313 | 5.02301 | 26406 ft | 431 kts | 154° |
| 2026-04-28 17:40 | 51.20625 | 5.04434 | 26748 ft | 433 kts | 154° |
| 2026-04-28 17:40 | 51.17916 | 5.06582 | 27066 ft | 435 kts | 154° |
| 2026-04-28 17:40 | 51.15195 | 5.08735 | 27380 ft | 438 kts | 154° |
| 2026-04-28 17:40 | 51.12462 | 5.10896 | 27681 ft | 440 kts | 154° |
| 2026-04-28 17:41 | 51.09712 | 5.13066 | 27976 ft | 442 kts | 154° |
| 2026-04-28 17:41 | 51.06953 | 5.15240 | 28282 ft | 444 kts | 155° |
| 2026-04-28 17:41 | 51.04178 | 5.17424 | 28547 ft | 446 kts | 155° |
| 2026-04-28 17:41 | 51.01387 | 5.19618 | 28820 ft | 448 kts | 155° |
| 2026-04-28 17:42 | 50.98590 | 5.21814 | 29091 ft | 450 kts | 155° |
| 2026-04-28 17:42 | 50.96730 | 5.23274 | 29264 ft | 452 kts | 155° |
| 2026-04-28 17:42 | 50.92946 | 5.26238 | 29610 ft | 454 kts | 155° |
| 2026-04-28 17:42 | 50.90112 | 5.28456 | 29857 ft | 456 kts | 155° |
| 2026-04-28 17:43 | 50.87264 | 5.30680 | 30113 ft | 457 kts | 155° |
| 2026-04-28 17:43 | 50.84407 | 5.32907 | 30433 ft | 456 kts | 155° |
| 2026-04-28 17:43 | 50.81604 | 5.35092 | 30787 ft | 455 kts | 156° |
| 2026-04-28 17:43 | 50.78768 | 5.37297 | 31124 ft | 454 kts | 156° |
| 2026-04-28 17:44 | 50.75932 | 5.39497 | 31427 ft | 454 kts | 156° |
| 2026-04-28 17:44 | 50.73097 | 5.41696 | 31704 ft | 454 kts | 156° |
| 2026-04-28 17:44 | 50.70265 | 5.43890 | 31992 ft | 453 kts | 156° |
| 2026-04-28 17:44 | 50.67438 | 5.46078 | 32299 ft | 452 kts | 156° |
| 2026-04-28 17:45 | 50.64619 | 5.48257 | 32584 ft | 452 kts | 157° |
| 2026-04-28 17:45 | 50.61787 | 5.50443 | 32846 ft | 452 kts | 157° |
| 2026-04-28 17:45 | 50.58972 | 5.52613 | 33080 ft | 451 kts | 157° |
| 2026-04-28 17:45 | 50.56152 | 5.54782 | 33342 ft | 451 kts | 157° |
| 2026-04-28 17:46 | 50.53340 | 5.56943 | 33628 ft | 449 kts | 158° |
| 2026-04-28 17:46 | 50.50530 | 5.59100 | 33858 ft | 449 kts | 158° |
| 2026-04-28 17:46 | 50.47722 | 5.61252 | 34079 ft | 449 kts | 158° |
| 2026-04-28 17:46 | 50.44913 | 5.63399 | 34320 ft | 449 kts | 158° |
| 2026-04-28 17:47 | 50.42102 | 5.65542 | 34518 ft | 450 kts | 158° |
| 2026-04-28 17:47 | 50.39291 | 5.67684 | 34702 ft | 450 kts | 158° |
| 2026-04-28 17:47 | 50.36477 | 5.69831 | 34922 ft | 450 kts | 158° |
| 2026-04-28 17:47 | 50.34573 | 5.71283 | 35060 ft | 450 kts | 158° |
| 2026-04-28 17:48 | 50.30841 | 5.74124 | 35135 ft | 453 kts | 158° |
| 2026-04-28 17:48 | 50.25155 | 5.78440 | 35140 ft | 453 kts | 158° |
| 2026-04-28 17:49 | 50.19503 | 5.82719 | 35134 ft | 450 kts | 159° |
| 2026-04-28 17:49 | 50.13883 | 5.86962 | 35125 ft | 448 kts | 159° |
| 2026-04-28 17:50 | 50.08279 | 5.91181 | 35124 ft | 446 kts | 159° |
| 2026-04-28 17:50 | 50.02689 | 5.95378 | 35124 ft | 446 kts | 159° |
| 2026-04-28 17:51 | 49.97093 | 5.99566 | 35113 ft | 446 kts | 159° |
| 2026-04-28 17:51 | 49.91491 | 6.03750 | 35106 ft | 447 kts | 159° |
| 2026-04-28 17:52 | 49.85880 | 6.07928 | 35101 ft | 448 kts | 159° |
| 2026-04-28 17:52 | 49.77428 | 6.14203 | 35104 ft | 450 kts | 159° |
| 2026-04-28 17:53 | 49.71772 | 6.18390 | 35099 ft | 451 kts | 159° |
| 2026-04-28 17:53 | 49.66105 | 6.22576 | 35104 ft | 452 kts | 159° |
| 2026-04-28 17:54 | 49.60423 | 6.26759 | 35102 ft | 453 kts | 159° |
| 2026-04-28 17:54 | 49.54725 | 6.30945 | 35103 ft | 454 kts | 159° |
| 2026-04-28 17:55 | 49.49980 | 6.34428 | 35100 ft | 454 kts | 159° |
| 2026-04-28 17:55 | 49.44270 | 6.38599 | 35104 ft | 455 kts | 160° |
| 2026-04-28 17:56 | 49.38531 | 6.42779 | 35083 ft | 456 kts | 160° |
| 2026-04-28 17:56 | 49.32797 | 6.46948 | 35079 ft | 456 kts | 160° |
| 2026-04-28 17:57 | 49.27058 | 6.51111 | 35078 ft | 456 kts | 160° |
| 2026-04-28 17:57 | 49.21330 | 6.55256 | 35082 ft | 456 kts | 160° |
| 2026-04-28 17:58 | 49.15591 | 6.59396 | 35073 ft | 456 kts | 160° |
| 2026-04-28 17:58 | 49.09850 | 6.63530 | 35066 ft | 456 kts | 160° |
| 2026-04-28 17:59 | 49.04114 | 6.67650 | 35063 ft | 456 kts | 161° |
| 2026-04-28 17:59 | 48.98377 | 6.71756 | 35064 ft | 456 kts | 161° |
| 2026-04-28 18:00 | 48.92613 | 6.75747 | 35061 ft | 455 kts | 162° |
| 2026-04-28 18:00 | 48.86823 | 6.79670 | 35056 ft | 456 kts | 162° |
| 2026-04-28 18:01 | 48.81023 | 6.83598 | 35056 ft | 457 kts | 162° |
| 2026-04-28 18:01 | 48.75212 | 6.87539 | 35059 ft | 458 kts | 162° |
| 2026-04-28 18:02 | 48.69393 | 6.91481 | 35055 ft | 458 kts | 162° |
| 2026-04-28 18:02 | 48.63612 | 6.95389 | 35054 ft | 459 kts | 162° |
| 2026-04-28 18:03 | 48.57777 | 6.99323 | 35050 ft | 460 kts | 162° |
| 2026-04-28 18:03 | 48.51929 | 7.03257 | 35048 ft | 460 kts | 162° |
| 2026-04-28 18:04 | 48.46072 | 7.07184 | 35039 ft | 461 kts | 163° |
| 2026-04-28 18:04 | 48.40202 | 7.11113 | 35025 ft | 462 kts | 163° |
| 2026-04-28 18:05 | 48.35330 | 7.14366 | 35032 ft | 458 kts | 163° |
| 2026-04-28 18:05 | 48.31518 | 7.16920 | 35013 ft | 439 kts | 163° |
| 2026-04-28 18:05 | 48.28762 | 7.18764 | 35017 ft | 428 kts | 163° |
| 2026-04-28 18:06 | 48.23341 | 7.22358 | 35038 ft | 426 kts | 164° |
| 2026-04-28 18:06 | 48.17918 | 7.25936 | 35041 ft | 427 kts | 164° |
| 2026-04-28 18:07 | 48.12463 | 7.29535 | 35029 ft | 430 kts | 164° |
| 2026-04-28 18:07 | 48.06971 | 7.33156 | 35028 ft | 433 kts | 164° |
| 2026-04-28 18:08 | 48.01448 | 7.36791 | 35024 ft | 435 kts | 164° |
| 2026-04-28 18:08 | 47.95891 | 7.40442 | 35026 ft | 437 kts | 164° |
| 2026-04-28 18:09 | 47.90307 | 7.44098 | 35033 ft | 439 kts | 164° |
| 2026-04-28 18:09 | 47.84707 | 7.47757 | 35031 ft | 440 kts | 164° |
| 2026-04-28 18:10 | 47.79097 | 7.51417 | 35037 ft | 440 kts | 164° |
| 2026-04-28 18:10 | 47.73491 | 7.55068 | 35038 ft | 440 kts | 163° |
| 2026-04-28 18:11 | 47.67957 | 7.58898 | 35026 ft | 433 kts | 162° |
| 2026-04-28 18:11 | 47.62601 | 7.62725 | 35042 ft | 425 kts | 162° |
| 2026-04-28 18:12 | 47.57275 | 7.66498 | 35049 ft | 423 kts | 162° |
| 2026-04-28 18:12 | 47.51968 | 7.70225 | 35043 ft | 422 kts | 162° |
| 2026-04-28 18:13 | 47.46643 | 7.73944 | 35064 ft | 427 kts | 162° |
| 2026-04-28 18:13 | 47.41210 | 7.77728 | 35064 ft | 435 kts | 162° |
| 2026-04-28 18:14 | 47.35715 | 7.81555 | 35067 ft | 438 kts | 162° |
| 2026-04-28 18:14 | 47.30217 | 7.85380 | 35054 ft | 434 kts | 161° |
| 2026-04-28 18:15 | 47.24812 | 7.89134 | 35061 ft | 428 kts | 161° |
| 2026-04-28 18:15 | 47.19458 | 7.92835 | 35069 ft | 428 kts | 161° |
| 2026-04-28 18:16 | 47.14065 | 7.96552 | 35070 ft | 428 kts | 161° |
| 2026-04-28 18:16 | 47.08681 | 8.00258 | 35084 ft | 428 kts | 161° |
| 2026-04-28 18:17 | 47.03281 | 8.03968 | 35096 ft | 429 kts | 161° |
| 2026-04-28 18:17 | 46.97868 | 8.07678 | 35104 ft | 430 kts | 161° |
| 2026-04-28 18:18 | 46.92433 | 8.11392 | 35100 ft | 432 kts | 161° |
| 2026-04-28 18:18 | 46.87898 | 8.14487 | 35106 ft | 433 kts | 161° |
| 2026-04-28 18:19 | 46.81509 | 8.18838 | 35101 ft | 434 kts | 161° |
| 2026-04-28 18:19 | 46.76034 | 8.22559 | 35114 ft | 433 kts | 161° |
| 2026-04-28 18:20 | 46.70571 | 8.26261 | 35103 ft | 432 kts | 161° |
| 2026-04-28 18:20 | 46.65115 | 8.29951 | 35103 ft | 432 kts | 161° |
| 2026-04-28 18:21 | 46.59666 | 8.33625 | 35104 ft | 432 kts | 161° |
| 2026-04-28 18:21 | 46.54218 | 8.37294 | 35103 ft | 431 kts | 161° |
| 2026-04-28 18:22 | 46.48783 | 8.40942 | 35076 ft | 430 kts | 161° |
| 2026-04-28 18:22 | 46.43371 | 8.44571 | 35085 ft | 427 kts | 161° |
| 2026-04-28 18:23 | 46.37979 | 8.48176 | 35066 ft | 426 kts | 161° |
| 2026-04-28 18:23 | 46.32615 | 8.51756 | 35081 ft | 423 kts | 161° |
| 2026-04-28 18:24 | 46.28177 | 8.54712 | 35079 ft | 422 kts | 161° |
| 2026-04-28 18:24 | 46.21936 | 8.58859 | 35082 ft | 422 kts | 161° |
| 2026-04-28 18:25 | 46.16596 | 8.62401 | 35077 ft | 423 kts | 161° |
| 2026-04-28 18:26 | 46.08406 | 8.66808 | 35066 ft | 412 kts | 179° |
| 2026-04-28 18:26 | 46.02735 | 8.67475 | 35068 ft | 409 kts | 182° |
| 2026-04-28 18:27 | 45.97031 | 8.68046 | 35062 ft | 413 kts | 182° |
| 2026-04-28 18:27 | 45.91282 | 8.68657 | 35051 ft | 415 kts | 181° |
| 2026-04-28 18:28 | 45.85545 | 8.69292 | 35045 ft | 417 kts | 181° |
| 2026-04-28 18:28 | 45.79754 | 8.69941 | 35034 ft | 417 kts | 181° |
| 2026-04-28 18:29 | 45.73970 | 8.70591 | 35023 ft | 416 kts | 181° |
| 2026-04-28 18:29 | 45.68208 | 8.71237 | 35024 ft | 414 kts | 181° |
| 2026-04-28 18:30 | 45.62480 | 8.71874 | 35013 ft | 412 kts | 181° |
| 2026-04-28 18:30 | 45.56786 | 8.72504 | 35015 ft | 410 kts | 181° |
| 2026-04-28 18:31 | 45.51114 | 8.73134 | 35020 ft | 408 kts | 181° |
| 2026-04-28 18:31 | 45.45470 | 8.73759 | 35015 ft | 406 kts | 181° |
| 2026-04-28 18:32 | 45.39838 | 8.74380 | 35018 ft | 406 kts | 181° |
| 2026-04-28 18:32 | 45.34206 | 8.75001 | 35016 ft | 406 kts | 181° |
| 2026-04-28 18:33 | 45.28560 | 8.75623 | 35022 ft | 407 kts | 181° |
| 2026-04-28 18:33 | 45.22899 | 8.76243 | 35023 ft | 409 kts | 181° |
| 2026-04-28 18:34 | 45.17211 | 8.76864 | 35023 ft | 411 kts | 181° |
| 2026-04-28 18:34 | 45.11493 | 8.77488 | 35015 ft | 413 kts | 181° |
| 2026-04-28 18:35 | 45.05751 | 8.78115 | 35016 ft | 415 kts | 181° |
| 2026-04-28 18:35 | 44.99985 | 8.78742 | 35016 ft | 416 kts | 181° |
| 2026-04-28 18:36 | 44.94213 | 8.79371 | 35014 ft | 416 kts | 181° |
| 2026-04-28 18:36 | 44.88443 | 8.79995 | 35014 ft | 416 kts | 180° |
| 2026-04-28 18:37 | 44.82685 | 8.80620 | 35018 ft | 414 kts | 181° |
| 2026-04-28 18:37 | 44.76940 | 8.81242 | 35016 ft | 413 kts | 180° |
| 2026-04-28 18:38 | 44.71217 | 8.81861 | 35015 ft | 412 kts | 180° |
| 2026-04-28 18:38 | 44.65510 | 8.82474 | 35021 ft | 411 kts | 180° |
| 2026-04-28 18:39 | 44.59818 | 8.83084 | 35017 ft | 409 kts | 180° |
| 2026-04-28 18:39 | 44.54147 | 8.83691 | 35022 ft | 409 kts | 180° |
| 2026-04-28 18:40 | 44.48478 | 8.84296 | 35014 ft | 408 kts | 180° |
| 2026-04-28 18:40 | 44.43764 | 8.84797 | 35012 ft | 409 kts | 180° |
| 2026-04-28 18:41 | 44.38089 | 8.85405 | 35016 ft | 409 kts | 180° |
| 2026-04-28 18:41 | 44.32418 | 8.86009 | 35019 ft | 409 kts | 180° |
| 2026-04-28 18:42 | 44.26740 | 8.86611 | 35018 ft | 409 kts | 180° |
| 2026-04-28 18:42 | 44.21062 | 8.87210 | 35017 ft | 409 kts | 180° |
| 2026-04-28 18:43 | 44.15378 | 8.87812 | 35019 ft | 410 kts | 180° |
| 2026-04-28 18:43 | 44.09684 | 8.88414 | 35027 ft | 410 kts | 180° |
| 2026-04-28 18:44 | 44.03989 | 8.89014 | 35029 ft | 411 kts | 180° |
| 2026-04-28 18:44 | 43.95434 | 8.89911 | 35027 ft | 411 kts | 180° |
| 2026-04-28 18:45 | 43.89724 | 8.90511 | 35027 ft | 412 kts | 180° |
| 2026-04-28 18:45 | 43.84007 | 8.91109 | 35022 ft | 412 kts | 180° |
| 2026-04-28 18:46 | 43.78286 | 8.91704 | 35016 ft | 412 kts | 180° |
| 2026-04-28 18:46 | 43.72563 | 8.92301 | 35019 ft | 412 kts | 179° |
| 2026-04-28 18:47 | 43.66844 | 8.92899 | 35020 ft | 412 kts | 179° |
| 2026-04-28 18:47 | 43.61129 | 8.93493 | 35018 ft | 412 kts | 179° |
| 2026-04-28 18:48 | 43.55455 | 8.94080 | 35018 ft | 412 kts | 179° |
| 2026-04-28 18:48 | 43.49748 | 8.94670 | 35023 ft | 411 kts | 179° |
| 2026-04-28 18:49 | 43.44968 | 8.95164 | 35029 ft | 411 kts | 179° |
| 2026-04-28 18:49 | 43.38387 | 8.95113 | 35029 ft | 403 kts | 195° |
| 2026-04-28 18:50 | 43.33138 | 8.92704 | 35032 ft | 397 kts | 206° |
| 2026-04-28 18:50 | 43.28057 | 8.89730 | 35020 ft | 397 kts | 206° |
| 2026-04-28 18:51 | 43.22968 | 8.86778 | 35019 ft | 397 kts | 206° |
| 2026-04-28 18:51 | 43.17863 | 8.83860 | 35017 ft | 398 kts | 206° |
| 2026-04-28 18:52 | 43.12749 | 8.80954 | 35018 ft | 398 kts | 206° |
| 2026-04-28 18:52 | 43.07628 | 8.78051 | 35017 ft | 399 kts | 206° |
| 2026-04-28 18:53 | 43.02504 | 8.75150 | 35014 ft | 399 kts | 206° |
| 2026-04-28 18:53 | 42.97374 | 8.72253 | 35010 ft | 399 kts | 206° |
| 2026-04-28 18:54 | 42.92241 | 8.69358 | 35004 ft | 400 kts | 206° |
| 2026-04-28 18:54 | 42.87096 | 8.66465 | 34998 ft | 400 kts | 206° |
| 2026-04-28 18:55 | 42.82822 | 8.64062 | 35002 ft | 400 kts | 206° |
| 2026-04-28 18:55 | 42.76811 | 8.60689 | 35002 ft | 400 kts | 205° |
| 2026-04-28 18:56 | 42.71692 | 8.57824 | 35002 ft | 400 kts | 205° |
| 2026-04-28 18:56 | 42.66547 | 8.54948 | 35001 ft | 400 kts | 205° |
| 2026-04-28 18:57 | 42.61401 | 8.52078 | 35005 ft | 400 kts | 205° |
| 2026-04-28 18:57 | 42.56260 | 8.49213 | 35003 ft | 399 kts | 205° |
| 2026-04-28 18:58 | 42.51119 | 8.46354 | 34999 ft | 399 kts | 205° |
| 2026-04-28 18:58 | 42.45811 | 8.44113 | 34993 ft | 403 kts | 191° |
| 2026-04-28 18:59 | 42.40145 | 8.43960 | 34638 ft | 413 kts | 181° |
| 2026-04-28 18:59 | 42.37271 | 8.44097 | 34335 ft | 413 kts | 181° |
| 2026-04-28 18:59 | 42.34403 | 8.44224 | 33951 ft | 411 kts | 181° |
| 2026-04-28 19:00 | 42.31555 | 8.44326 | 33567 ft | 408 kts | 181° |
| 2026-04-28 19:00 | 42.28727 | 8.44410 | 33191 ft | 407 kts | 181° |
| 2026-04-28 19:00 | 42.25896 | 8.44487 | 32814 ft | 407 kts | 181° |
| 2026-04-28 19:00 | 42.23075 | 8.44793 | 32423 ft | 410 kts | 172° |
| 2026-04-28 19:01 | 42.20312 | 8.45788 | 32079 ft | 411 kts | 162° |
| 2026-04-28 19:01 | 42.17704 | 8.47394 | 31735 ft | 414 kts | 154° |
| 2026-04-28 19:01 | 42.15182 | 8.49272 | 31370 ft | 415 kts | 153° |
| 2026-04-28 19:01 | 42.12664 | 8.51190 | 30982 ft | 416 kts | 153° |
| 2026-04-28 19:02 | 42.10140 | 8.53109 | 30595 ft | 418 kts | 153° |
| 2026-04-28 19:02 | 42.07593 | 8.55029 | 30212 ft | 420 kts | 153° |
| 2026-04-28 19:02 | 42.05034 | 8.56943 | 29811 ft | 422 kts | 153° |
| 2026-04-28 19:02 | 42.02496 | 8.58828 | 29428 ft | 423 kts | 153° |
| 2026-04-28 19:03 | 41.99910 | 8.60739 | 29012 ft | 425 kts | 153° |
| 2026-04-28 19:03 | 41.97282 | 8.62676 | 28593 ft | 425 kts | 153° |
| 2026-04-28 19:03 | 41.94736 | 8.64551 | 28174 ft | 421 kts | 153° |
| 2026-04-28 19:03 | 41.92175 | 8.66436 | 27761 ft | 417 kts | 153° |
| 2026-04-28 19:04 | 41.89644 | 8.68298 | 27350 ft | 413 kts | 153° |
| 2026-04-28 19:04 | 41.87140 | 8.70137 | 26944 ft | 409 kts | 153° |
| 2026-04-28 19:04 | 41.84657 | 8.71961 | 26542 ft | 403 kts | 153° |
| 2026-04-28 19:04 | 41.82227 | 8.73745 | 26140 ft | 392 kts | 153° |
| 2026-04-28 19:05 | 41.79862 | 8.75478 | 25779 ft | 385 kts | 154° |
| 2026-04-28 19:05 | 41.77435 | 8.76918 | 25407 ft | 379 kts | 165° |
| 2026-04-28 19:05 | 41.74896 | 8.77734 | 25096 ft | 373 kts | 174° |
| 2026-04-28 19:05 | 41.72319 | 8.78021 | 24745 ft | 371 kts | 179° |
| 2026-04-28 19:06 | 41.69739 | 8.78216 | 24378 ft | 371 kts | 179° |
| 2026-04-28 19:06 | 41.67999 | 8.78340 | 24125 ft | 371 kts | 179° |
| 2026-04-28 19:06 | 41.64589 | 8.78592 | 23638 ft | 370 kts | 179° |
| 2026-04-28 19:06 | 41.62019 | 8.78792 | 23262 ft | 370 kts | 179° |
| 2026-04-28 19:07 | 41.59455 | 8.79000 | 22894 ft | 369 kts | 178° |
| 2026-04-28 19:07 | 41.56900 | 8.79213 | 22524 ft | 368 kts | 178° |
| 2026-04-28 19:07 | 41.54350 | 8.79427 | 22154 ft | 366 kts | 178° |
| 2026-04-28 19:07 | 41.51812 | 8.79641 | 21783 ft | 364 kts | 178° |
| 2026-04-28 19:08 | 41.49291 | 8.79855 | 21411 ft | 361 kts | 178° |
| 2026-04-28 19:08 | 41.46793 | 8.80067 | 21053 ft | 358 kts | 178° |
| 2026-04-28 19:08 | 41.44315 | 8.80275 | 20691 ft | 355 kts | 178° |
| 2026-04-28 19:08 | 41.41859 | 8.80482 | 20328 ft | 353 kts | 178° |
| 2026-04-28 19:09 | 41.39419 | 8.80686 | 19972 ft | 350 kts | 178° |
| 2026-04-28 19:09 | 41.36997 | 8.80890 | 19619 ft | 348 kts | 178° |
| 2026-04-28 19:09 | 41.34595 | 8.81123 | 19260 ft | 346 kts | 173° |
| 2026-04-28 19:09 | 41.32323 | 8.82135 | 18895 ft | 347 kts | 151° |
| 2026-04-28 19:10 | 41.30335 | 8.83934 | 18587 ft | 345 kts | 146° |
| 2026-04-28 19:10 | 41.28421 | 8.85839 | 18231 ft | 343 kts | 144° |
| 2026-04-28 19:10 | 41.26529 | 8.87746 | 17884 ft | 341 kts | 145° |
| 2026-04-28 19:10 | 41.24643 | 8.89634 | 17538 ft | 338 kts | 145° |
| 2026-04-28 19:11 | 41.22764 | 8.91498 | 17200 ft | 336 kts | 145° |
| 2026-04-28 19:11 | 41.20891 | 8.93341 | 16859 ft | 334 kts | 145° |
| 2026-04-28 19:11 | 41.19019 | 8.95175 | 16523 ft | 333 kts | 145° |
| 2026-04-28 19:11 | 41.17158 | 8.96993 | 16183 ft | 332 kts | 145° |
| 2026-04-28 19:12 | 41.15304 | 8.98802 | 15849 ft | 330 kts | 146° |
| 2026-04-28 19:12 | 41.13456 | 9.00602 | 15513 ft | 329 kts | 146° |
| 2026-04-28 19:12 | 41.11611 | 9.02388 | 15173 ft | 328 kts | 146° |
| 2026-04-28 19:12 | 41.09746 | 9.04116 | 14831 ft | 327 kts | 147° |
| 2026-04-28 19:13 | 41.07881 | 9.05822 | 14492 ft | 325 kts | 147° |
| 2026-04-28 19:13 | 41.06020 | 9.07528 | 14156 ft | 324 kts | 147° |
| 2026-04-28 19:13 | 41.04169 | 9.09228 | 13815 ft | 323 kts | 147° |
| 2026-04-28 19:13 | 41.02368 | 9.10985 | 13484 ft | 323 kts | 137° |
| 2026-04-28 19:14 | 41.01157 | 9.13420 | 13144 ft | 324 kts | 111° |
| 2026-04-28 19:14 | 41.00808 | 9.16383 | 12901 ft | 322 kts | 88° |
| 2026-04-28 19:14 | 41.01243 | 9.19274 | 12711 ft | 321 kts | 68° |
| 2026-04-28 19:14 | 41.02344 | 9.21829 | 12536 ft | 320 kts | 55° |
| 2026-04-28 19:15 | 41.03640 | 9.24237 | 12341 ft | 323 kts | 54° |
| 2026-04-28 19:15 | 41.04954 | 9.26671 | 12145 ft | 326 kts | 56° |
| 2026-04-28 19:15 | 41.05836 | 9.29405 | 11912 ft | 324 kts | 83° |
| 2026-04-28 19:15 | 41.05869 | 9.31358 | 11807 ft | 319 kts | 99° |
| 2026-04-28 19:16 | 41.04804 | 9.34927 | 11565 ft | 311 kts | 128° |
| 2026-04-28 19:16 | 41.03305 | 9.36958 | 11368 ft | 308 kts | 144° |
| 2026-04-28 19:16 | 41.01550 | 9.38593 | 11216 ft | 309 kts | 148° |
| 2026-04-28 19:16 | 40.99757 | 9.40168 | 11032 ft | 309 kts | 148° |
| 2026-04-28 19:17 | 40.97959 | 9.41703 | 10815 ft | 307 kts | 154° |
| 2026-04-28 19:17 | 40.95957 | 9.42478 | 10555 ft | 304 kts | 178° |
| 2026-04-28 19:17 | 40.93849 | 9.42145 | 10324 ft | 302 kts | 200° |
| 2026-04-28 19:17 | 40.92066 | 9.40830 | 10169 ft | 298 kts | 221° |
| 2026-04-28 19:18 | 40.90794 | 9.38716 | 10082 ft | 293 kts | 243° |
| 2026-04-28 19:18 | 40.90237 | 9.36146 | 10032 ft | 294 kts | 265° |
| 2026-04-28 19:18 | 40.90459 | 9.33439 | 10004 ft | 301 kts | 287° |
| 2026-04-28 19:18 | 40.91427 | 9.30989 | 10005 ft | 307 kts | 307° |
| 2026-04-28 19:19 | 40.93026 | 9.29095 | 10010 ft | 308 kts | 323° |
| 2026-04-28 19:19 | 40.94790 | 9.27486 | 9996 ft | 309 kts | 324° |
| 2026-04-28 19:19 | 40.96566 | 9.25873 | 9989 ft | 309 kts | 324° |
| 2026-04-28 19:19 | 40.98334 | 9.24256 | 9992 ft | 308 kts | 324° |
| 2026-04-28 19:20 | 41.00252 | 9.23102 | 9973 ft | 302 kts | 349° |
| 2026-04-28 19:20 | 41.02328 | 9.23120 | 9938 ft | 292 kts | 12° |
| 2026-04-28 19:20 | 41.04159 | 9.24124 | 9673 ft | 289 kts | 34° |
| 2026-04-28 19:20 | 41.05590 | 9.25950 | 9428 ft | 286 kts | 56° |
| 2026-04-28 19:21 | 41.06410 | 9.28315 | 9181 ft | 282 kts | 78° |
| 2026-04-28 19:21 | 41.06512 | 9.30880 | 8938 ft | 279 kts | 100° |
| 2026-04-28 19:21 | 41.05917 | 9.33300 | 8700 ft | 276 kts | 119° |
| 2026-04-28 19:21 | 41.04791 | 9.35335 | 8440 ft | 274 kts | 139° |
| 2026-04-28 19:22 | 41.03299 | 9.36880 | 8205 ft | 271 kts | 146° |
| 2026-04-28 19:22 | 41.02783 | 9.37356 | 8119 ft | 269 kts | 146° |
| 2026-04-28 19:22 | 41.00229 | 9.39664 | 7704 ft | 269 kts | 146° |
| 2026-04-28 19:22 | 40.98668 | 9.41088 | 7466 ft | 275 kts | 146° |
| 2026-04-28 19:23 | 40.96949 | 9.42195 | 7188 ft | 277 kts | 169° |
| 2026-04-28 19:23 | 40.95054 | 9.42159 | 7051 ft | 275 kts | 194° |
| 2026-04-28 19:23 | 40.93331 | 9.41097 | 7021 ft | 276 kts | 217° |
| 2026-04-28 19:23 | 40.92075 | 9.39194 | 6990 ft | 276 kts | 241° |
| 2026-04-28 19:24 | 40.91544 | 9.36760 | 6996 ft | 280 kts | 266° |
| 2026-04-28 19:24 | 40.91862 | 9.34225 | 6996 ft | 283 kts | 292° |
| 2026-04-28 19:24 | 40.92960 | 9.32081 | 6999 ft | 285 kts | 316° |
| 2026-04-28 19:24 | 40.94535 | 9.30493 | 7018 ft | 285 kts | 324° |
| 2026-04-28 19:25 | 40.96177 | 9.29009 | 7001 ft | 286 kts | 325° |
| 2026-04-28 19:25 | 40.97821 | 9.27516 | 6993 ft | 287 kts | 324° |
| 2026-04-28 19:25 | 40.99466 | 9.26014 | 6987 ft | 287 kts | 327° |
| 2026-04-28 19:25 | 41.01309 | 9.25061 | 6995 ft | 287 kts | 354° |
| 2026-04-28 19:26 | 41.03272 | 9.25330 | 7003 ft | 286 kts | 20° |
| 2026-04-28 19:26 | 41.04948 | 9.26688 | 7001 ft | 284 kts | 46° |
| 2026-04-28 19:26 | 41.06018 | 9.28853 | 7003 ft | 282 kts | 72° |
| 2026-04-28 19:26 | 41.06160 | 9.31399 | 7014 ft | 278 kts | 102° |
| 2026-04-28 19:27 | 41.05429 | 9.33746 | 7000 ft | 277 kts | 127° |
| 2026-04-28 19:27 | 41.04082 | 9.35545 | 7014 ft | 276 kts | 142° |
| 2026-04-28 19:27 | 41.02565 | 9.37109 | 6998 ft | 274 kts | 143° |
| 2026-04-28 19:27 | 41.01568 | 9.38093 | 6984 ft | 266 kts | 148° |
| 2026-04-28 19:28 | 40.99298 | 9.38905 | 6999 ft | 250 kts | 185° |
| 2026-04-28 19:28 | 40.98172 | 9.38604 | 7017 ft | 251 kts | 199° |
| 2026-04-28 19:28 | 40.96636 | 9.37497 | 6991 ft | 254 kts | 220° |
| 2026-04-28 19:28 | 40.95487 | 9.35723 | 7016 ft | 254 kts | 233° |
| 2026-04-28 19:29 | 40.94481 | 9.33797 | 6996 ft | 255 kts | 234° |
| 2026-04-28 19:29 | 40.93802 | 9.32486 | 7006 ft | 255 kts | 235° |
| 2026-04-28 19:29 | 40.92457 | 9.29888 | 6999 ft | 256 kts | 234° |
| 2026-04-28 19:29 | 40.91446 | 9.27954 | 7000 ft | 256 kts | 234° |
| 2026-04-28 19:30 | 40.90432 | 9.26019 | 7001 ft | 256 kts | 234° |
| 2026-04-28 19:30 | 40.89415 | 9.24088 | 7014 ft | 256 kts | 234° |
| 2026-04-28 19:30 | 40.88408 | 9.22177 | 6995 ft | 257 kts | 234° |
| 2026-04-28 19:30 | 40.87392 | 9.20245 | 6995 ft | 256 kts | 234° |
| 2026-04-28 19:31 | 40.86379 | 9.18320 | 6993 ft | 255 kts | 234° |
| 2026-04-28 19:31 | 40.85368 | 9.16404 | 6990 ft | 254 kts | 234° |
| 2026-04-28 19:31 | 40.84361 | 9.14494 | 7004 ft | 253 kts | 234° |
| 2026-04-28 19:31 | 40.83251 | 9.12710 | 6984 ft | 250 kts | 216° |
| 2026-04-28 19:32 | 40.81709 | 9.11825 | 6994 ft | 239 kts | 186° |
| 2026-04-28 19:32 | 40.80113 | 9.12119 | 6985 ft | 231 kts | 154° |
| 2026-04-28 19:32 | 40.78766 | 9.13256 | 7015 ft | 230 kts | 144° |
| 2026-04-28 19:32 | 40.77475 | 9.14534 | 6872 ft | 236 kts | 143° |
| 2026-04-28 19:33 | 40.76156 | 9.15862 | 6614 ft | 237 kts | 143° |
| 2026-04-28 19:33 | 40.74866 | 9.17169 | 6351 ft | 231 kts | 143° |
| 2026-04-28 19:33 | 40.73616 | 9.18436 | 6180 ft | 223 kts | 143° |
| 2026-04-28 19:33 | 40.72637 | 9.19960 | 6058 ft | 218 kts | 108° |
| 2026-04-28 19:34 | 40.72682 | 9.21851 | 5987 ft | 206 kts | 63° |
| 2026-04-28 19:34 | 40.73721 | 9.23110 | 6041 ft | 217 kts | 18° |
| 2026-04-28 19:34 | 40.75128 | 9.24013 | 6409 ft | 235 kts | 39° |
| 2026-04-28 19:34 | 40.76258 | 9.25575 | 6258 ft | 237 kts | 52° |
| 2026-04-28 19:35 | 40.77233 | 9.27358 | 5381 ft | 241 kts | 60° |
| 2026-04-28 19:35 | 40.78070 | 9.29191 | 4837 ft | 227 kts | 58° |
| 2026-04-28 19:35 | 40.78952 | 9.30869 | 4201 ft | 220 kts | 56° |
| 2026-04-28 19:35 | 40.79803 | 9.32504 | 3657 ft | 211 kts | 59° |
| 2026-04-28 19:36 | 40.80612 | 9.34077 | 3221 ft | 203 kts | 57° |
| 2026-04-28 19:36 | 40.81402 | 9.35549 | 2971 ft | 186 kts | 57° |
| 2026-04-28 19:36 | 40.82118 | 9.36883 | 2784 ft | 169 kts | 57° |
| 2026-04-28 19:36 | 40.82764 | 9.38119 | 2672 ft | 163 kts | 57° |
| 2026-04-28 19:37 | 40.83406 | 9.39354 | 2427 ft | 163 kts | 57° |
| 2026-04-28 19:37 | 40.83827 | 9.40165 | 2265 ft | 161 kts | 57° |
| 2026-04-28 19:37 | 40.84662 | 9.41768 | 1934 ft | 156 kts | 56° |
| 2026-04-28 19:37 | 40.85278 | 9.42954 | 1701 ft | 156 kts | 56° |
| 2026-04-28 19:38 | 40.85897 | 9.44142 | 1456 ft | 158 kts | 55° |
| 2026-04-28 19:38 | 40.86519 | 9.45340 | 1213 ft | 158 kts | 55° |
| 2026-04-28 19:38 | 40.87143 | 9.46538 | 967 ft | 157 kts | 55° |
| 2026-04-28 19:38 | 40.87759 | 9.47726 | 711 ft | 156 kts | 54° |
| 2026-04-28 19:39 | 40.88370 | 9.48904 | 462 ft | 155 kts | 55° |
| 2026-04-28 19:39 | 40.88985 | 9.50075 | 215 ft | 155 kts | 55° |
| 2026-04-28 19:39 | 40.89593 | 9.51232 | 43 ft | 150 kts | 55° |
| 2026-04-28 19:39 | 40.90113 | 9.52232 | 33 ft | 106 kts | 55° |
| 2026-04-28 19:40 | 40.90396 | 9.52775 | 33 ft | 37 kts | 55° |
| 2026-04-28 19:40 | 40.90509 | 9.52926 | 32 ft | 17 kts | 6° |
| 2026-04-28 19:40 | 40.90579 | 9.52854 | 33 ft | 13 kts | 277° |
| 2026-04-28 19:40 | 40.90573 | 9.52797 | 33 ft | 5 kts | 258° |
| 2026-04-28 19:41 | 40.90566 | 9.52752 | 33 ft | 5 kts | 258° |
| 2026-04-28 19:41 | 40.90558 | 9.52707 | 33 ft | 5 kts | 256° |
| 2026-04-28 19:41 | 40.90544 | 9.52664 | 33 ft | 6 kts | 240° |
| 2026-04-28 19:41 | 40.90508 | 9.52597 | 33 ft | 12 kts | 234° |
| 2026-04-28 19:42 | 40.90464 | 9.52515 | 33 ft | 9 kts | 235° |
| 2026-04-28 19:42 | 40.90431 | 9.52452 | 33 ft | 8 kts | 236° |
| 2026-04-28 19:42 | 40.90398 | 9.52387 | 31 ft | 9 kts | 235° |
| 2026-04-28 19:42 | 40.90373 | 9.52340 | 33 ft | 10 kts | 235° |
| 2026-04-28 19:43 | 40.90314 | 9.52228 | 32 ft | 13 kts | 235° |
| 2026-04-28 19:43 | 40.90258 | 9.52120 | 33 ft | 15 kts | 235° |
| 2026-04-28 19:43 | 40.90198 | 9.52006 | 32 ft | 15 kts | 235° |
| 2026-04-28 19:43 | 40.90182 | 9.51874 | 33 ft | 15 kts | 281° |
| 2026-04-28 19:44 | 40.90220 | 9.51784 | 32 ft | 8 kts | 305° |
| 2026-04-28 19:44 | 40.90234 | 9.51742 | 33 ft | 5 kts | 314° |
| 2026-04-28 19:44 | 40.90256 | 9.51719 | 32 ft | 2 kts | 324° |
| 2026-04-28 19:44 | 40.90267 | 9.51708 | 33 ft | 2 kts | 325° |
| 2026-04-28 19:45 | 40.90269 | 9.51706 | 33 ft | 0 kts | 324° |